sensor_id;sensor_type;location;lat;lon;timestamp;P1;durP1;ratioP1;P2;durP2;ratioP2
17714;SDS011;8977;50.902;4.314;2024-01-07T00:01:50;11.53;;;7.87;;
17714;SDS011;8977;50.902;4.314;2024-01-07T00:04:18;7.83;;;6.63;;
17714;SDS011;8977;50.902;4.314;2024-01-07T00:06:45;9.67;;;8.03;;
17714;SDS011;8977;50.902;4.314;2024-01-07T00:09:13;9.30;;;8.03;;
17714;SDS011;8977;50.902;4.314;2024-01-07T00:11:40;9.80;;;7.90;;
17714;SDS011;8977;50.902;4.314;2024-01-07T00:14:07;10.40;;;7.70;;
17714;SDS011;8977;50.902;4.314;2024-01-07T00:16:34;8.80;;;7.77;;
17714;SDS011;8977;50.902;4.314;2024-01-07T00:19:01;10.37;;;8.10;;
17714;SDS011;8977;50.902;4.314;2024-01-07T00:21:29;9.03;;;7.10;;
17714;SDS011;8977;50.902;4.314;2024-01-07T00:23:56;9.57;;;7.67;;
17714;SDS011;8977;50.902;4.314;2024-01-07T00:26:23;8.90;;;7.53;;
17714;SDS011;8977;50.902;4.314;2024-01-07T00:28:50;9.33;;;8.27;;
17714;SDS011;8977;50.902;4.314;2024-01-07T00:31:17;10.50;;;8.20;;
17714;SDS011;8977;50.902;4.314;2024-01-07T00:33:45;8.83;;;7.80;;
17714;SDS011;8977;50.902;4.314;2024-01-07T00:36:12;9.17;;;7.57;;
17714;SDS011;8977;50.902;4.314;2024-01-07T00:38:41;8.97;;;7.40;;
17714;SDS011;8977;50.902;4.314;2024-01-07T00:41:08;9.20;;;7.63;;
17714;SDS011;8977;50.902;4.314;2024-01-07T00:43:35;9.80;;;7.97;;
17714;SDS011;8977;50.902;4.314;2024-01-07T00:46:01;9.10;;;8.10;;
17714;SDS011;8977;50.902;4.314;2024-01-07T00:48:29;9.67;;;8.10;;
17714;SDS011;8977;50.902;4.314;2024-01-07T00:50:56;9.60;;;7.93;;
17714;SDS011;8977;50.902;4.314;2024-01-07T00:53:22;8.83;;;7.93;;
17714;SDS011;8977;50.902;4.314;2024-01-07T00:55:51;8.70;;;7.73;;
17714;SDS011;8977;50.902;4.314;2024-01-07T00:58:18;11.03;;;7.77;;
17714;SDS011;8977;50.902;4.314;2024-01-07T01:00:45;9.57;;;8.57;;
17714;SDS011;8977;50.902;4.314;2024-01-07T01:03:12;9.13;;;7.93;;
17714;SDS011;8977;50.902;4.314;2024-01-07T01:05:39;10.47;;;8.47;;
17714;SDS011;8977;50.902;4.314;2024-01-07T01:08:06;8.87;;;7.93;;
17714;SDS011;8977;50.902;4.314;2024-01-07T01:10:33;9.57;;;8.20;;
17714;SDS011;8977;50.902;4.314;2024-01-07T01:13:02;9.20;;;7.43;;
17714;SDS011;8977;50.902;4.314;2024-01-07T01:15:31;9.17;;;7.67;;
17714;SDS011;8977;50.902;4.314;2024-01-07T01:17:58;9.43;;;7.80;;
17714;SDS011;8977;50.902;4.314;2024-01-07T01:20:25;9.47;;;7.83;;
17714;SDS011;8977;50.902;4.314;2024-01-07T01:22:52;9.37;;;7.80;;
17714;SDS011;8977;50.902;4.314;2024-01-07T01:25:18;9.80;;;8.10;;
17714;SDS011;8977;50.902;4.314;2024-01-07T01:27:45;8.70;;;7.40;;
17714;SDS011;8977;50.902;4.314;2024-01-07T01:30:14;9.70;;;8.30;;
17714;SDS011;8977;50.902;4.314;2024-01-07T01:32:41;9.23;;;7.83;;
17714;SDS011;8977;50.902;4.314;2024-01-07T01:35:16;9.73;;;7.90;;
17714;SDS011;8977;50.902;4.314;2024-01-07T01:37:43;10.27;;;7.97;;
17714;SDS011;8977;50.902;4.314;2024-01-07T01:40:10;8.70;;;7.80;;
17714;SDS011;8977;50.902;4.314;2024-01-07T01:42:38;9.00;;;7.87;;
17714;SDS011;8977;50.902;4.314;2024-01-07T01:45:11;9.00;;;7.77;;
17714;SDS011;8977;50.902;4.314;2024-01-07T01:47:40;9.57;;;8.57;;
17714;SDS011;8977;50.902;4.314;2024-01-07T01:50:07;9.13;;;8.20;;
17714;SDS011;8977;50.902;4.314;2024-01-07T01:52:43;8.87;;;7.97;;
17714;SDS011;8977;50.902;4.314;2024-01-07T01:55:12;9.00;;;7.90;;
17714;SDS011;8977;50.902;4.314;2024-01-07T01:57:39;10.17;;;8.57;;
17714;SDS011;8977;50.902;4.314;2024-01-07T02:00:07;9.43;;;7.93;;
17714;SDS011;8977;50.902;4.314;2024-01-07T02:02:36;11.00;;;8.30;;
17714;SDS011;8977;50.902;4.314;2024-01-07T02:05:03;12.27;;;9.13;;
17714;SDS011;8977;50.902;4.314;2024-01-07T02:07:31;10.20;;;9.20;;
17714;SDS011;8977;50.902;4.314;2024-01-07T02:09:59;10.10;;;9.03;;
17714;SDS011;8977;50.902;4.314;2024-01-07T02:12:26;11.17;;;9.63;;
17714;SDS011;8977;50.902;4.314;2024-01-07T02:14:56;10.33;;;9.03;;
17714;SDS011;8977;50.902;4.314;2024-01-07T02:17:23;11.10;;;9.87;;
17714;SDS011;8977;50.902;4.314;2024-01-07T02:19:51;10.57;;;9.43;;
17714;SDS011;8977;50.902;4.314;2024-01-07T02:22:23;10.27;;;9.17;;
17714;SDS011;8977;50.902;4.314;2024-01-07T02:24:51;10.30;;;8.70;;
17714;SDS011;8977;50.902;4.314;2024-01-07T02:27:19;10.50;;;9.00;;
17714;SDS011;8977;50.902;4.314;2024-01-07T02:29:46;10.83;;;9.30;;
17714;SDS011;8977;50.902;4.314;2024-01-07T02:32:13;10.17;;;8.83;;
17714;SDS011;8977;50.902;4.314;2024-01-07T02:34:40;9.53;;;8.53;;
17714;SDS011;8977;50.902;4.314;2024-01-07T02:37:07;9.47;;;8.20;;
17714;SDS011;8977;50.902;4.314;2024-01-07T02:39:34;9.90;;;8.03;;
17714;SDS011;8977;50.902;4.314;2024-01-07T02:42:03;11.37;;;9.30;;
17714;SDS011;8977;50.902;4.314;2024-01-07T02:44:30;10.73;;;8.90;;
17714;SDS011;8977;50.902;4.314;2024-01-07T02:46:58;11.40;;;9.60;;
17714;SDS011;8977;50.902;4.314;2024-01-07T02:49:25;12.80;;;9.87;;
17714;SDS011;8977;50.902;4.314;2024-01-07T02:51:52;12.27;;;10.10;;
17714;SDS011;8977;50.902;4.314;2024-01-07T02:54:19;10.97;;;9.70;;
17714;SDS011;8977;50.902;4.314;2024-01-07T02:56:46;11.37;;;9.53;;
17714;SDS011;8977;50.902;4.314;2024-01-07T02:59:14;11.30;;;9.60;;
17714;SDS011;8977;50.902;4.314;2024-01-07T03:01:41;11.40;;;10.17;;
17714;SDS011;8977;50.902;4.314;2024-01-07T03:04:10;12.37;;;10.07;;
17714;SDS011;8977;50.902;4.314;2024-01-07T03:06:39;13.03;;;9.97;;
17714;SDS011;8977;50.902;4.314;2024-01-07T03:09:07;12.13;;;10.10;;
17714;SDS011;8977;50.902;4.314;2024-01-07T03:11:38;12.47;;;10.27;;
17714;SDS011;8977;50.902;4.314;2024-01-07T03:14:06;11.80;;;9.70;;
17714;SDS011;8977;50.902;4.314;2024-01-07T03:16:36;13.43;;;10.83;;
17714;SDS011;8977;50.902;4.314;2024-01-07T03:19:04;12.67;;;10.90;;
17714;SDS011;8977;50.902;4.314;2024-01-07T03:21:31;13.43;;;10.77;;
17714;SDS011;8977;50.902;4.314;2024-01-07T03:23:59;12.07;;;10.30;;
17714;SDS011;8977;50.902;4.314;2024-01-07T03:26:28;15.07;;;11.40;;
17714;SDS011;8977;50.902;4.314;2024-01-07T03:28:57;14.43;;;11.90;;
17714;SDS011;8977;50.902;4.314;2024-01-07T03:31:26;14.43;;;11.43;;
17714;SDS011;8977;50.902;4.314;2024-01-07T03:33:54;14.20;;;11.57;;
17714;SDS011;8977;50.902;4.314;2024-01-07T03:36:27;15.03;;;11.80;;
17714;SDS011;8977;50.902;4.314;2024-01-07T03:38:54;15.30;;;12.17;;
17714;SDS011;8977;50.902;4.314;2024-01-07T03:41:21;14.13;;;11.67;;
17714;SDS011;8977;50.902;4.314;2024-01-07T03:43:48;14.70;;;11.93;;
17714;SDS011;8977;50.902;4.314;2024-01-07T03:46:17;15.13;;;11.90;;
17714;SDS011;8977;50.902;4.314;2024-01-07T03:48:44;15.90;;;12.57;;
17714;SDS011;8977;50.902;4.314;2024-01-07T03:54:01;15.93;;;12.43;;
17714;SDS011;8977;50.902;4.314;2024-01-07T03:56:28;15.13;;;12.40;;
17714;SDS011;8977;50.902;4.314;2024-01-07T03:58:55;16.73;;;12.87;;
17714;SDS011;8977;50.902;4.314;2024-01-07T04:01:22;15.37;;;13.13;;
17714;SDS011;8977;50.902;4.314;2024-01-07T04:03:49;15.67;;;13.33;;
17714;SDS011;8977;50.902;4.314;2024-01-07T04:06:16;16.40;;;13.40;;
17714;SDS011;8977;50.902;4.314;2024-01-07T04:08:44;14.23;;;12.17;;
17714;SDS011;8977;50.902;4.314;2024-01-07T04:11:13;16.03;;;12.87;;
17714;SDS011;8977;50.902;4.314;2024-01-07T04:13:41;17.03;;;13.37;;
17714;SDS011;8977;50.902;4.314;2024-01-07T04:16:15;17.43;;;13.80;;
17714;SDS011;8977;50.902;4.314;2024-01-07T04:18:43;16.70;;;13.63;;
17714;SDS011;8977;50.902;4.314;2024-01-07T04:21:12;18.17;;;14.03;;
17714;SDS011;8977;50.902;4.314;2024-01-07T04:23:40;17.03;;;13.57;;
17714;SDS011;8977;50.902;4.314;2024-01-07T04:26:11;17.97;;;14.20;;
17714;SDS011;8977;50.902;4.314;2024-01-07T04:28:40;20.40;;;15.17;;
17714;SDS011;8977;50.902;4.314;2024-01-07T04:31:08;18.83;;;14.83;;
17714;SDS011;8977;50.902;4.314;2024-01-07T04:33:35;19.63;;;14.70;;
17714;SDS011;8977;50.902;4.314;2024-01-07T04:36:03;19.80;;;14.83;;
17714;SDS011;8977;50.902;4.314;2024-01-07T04:38:34;19.47;;;14.53;;
17714;SDS011;8977;50.902;4.314;2024-01-07T04:41:01;19.63;;;14.33;;
17714;SDS011;8977;50.902;4.314;2024-01-07T04:43:30;19.27;;;14.50;;
17714;SDS011;8977;50.902;4.314;2024-01-07T04:45:57;17.83;;;13.67;;
17714;SDS011;8977;50.902;4.314;2024-01-07T04:48:25;18.07;;;14.03;;
17714;SDS011;8977;50.902;4.314;2024-01-07T04:50:53;19.20;;;14.90;;
17714;SDS011;8977;50.902;4.314;2024-01-07T04:53:20;20.47;;;15.57;;
17714;SDS011;8977;50.902;4.314;2024-01-07T04:55:47;22.00;;;15.57;;
17714;SDS011;8977;50.902;4.314;2024-01-07T04:58:14;19.60;;;14.40;;
17714;SDS011;8977;50.902;4.314;2024-01-07T05:00:42;19.23;;;14.90;;
17714;SDS011;8977;50.902;4.314;2024-01-07T05:03:09;22.30;;;14.67;;
17714;SDS011;8977;50.902;4.314;2024-01-07T05:05:36;19.20;;;14.07;;
17714;SDS011;8977;50.902;4.314;2024-01-07T05:08:05;19.60;;;13.93;;
17714;SDS011;8977;50.902;4.314;2024-01-07T05:10:34;19.30;;;14.47;;
17714;SDS011;8977;50.902;4.314;2024-01-07T05:13:01;18.67;;;14.47;;
17714;SDS011;8977;50.902;4.314;2024-01-07T05:15:30;18.23;;;14.00;;
17714;SDS011;8977;50.902;4.314;2024-01-07T05:18:00;17.77;;;14.13;;
17714;SDS011;8977;50.902;4.314;2024-01-07T05:20:27;17.33;;;14.27;;
17714;SDS011;8977;50.902;4.314;2024-01-07T05:22:54;17.67;;;13.57;;
17714;SDS011;8977;50.902;4.314;2024-01-07T05:25:21;17.30;;;13.77;;
17714;SDS011;8977;50.902;4.314;2024-01-07T05:27:48;17.87;;;14.07;;
17714;SDS011;8977;50.902;4.314;2024-01-07T05:30:15;18.33;;;14.50;;
17714;SDS011;8977;50.902;4.314;2024-01-07T05:32:44;19.00;;;14.13;;
17714;SDS011;8977;50.902;4.314;2024-01-07T05:35:12;17.53;;;14.47;;
17714;SDS011;8977;50.902;4.314;2024-01-07T05:37:39;17.63;;;14.23;;
17714;SDS011;8977;50.902;4.314;2024-01-07T05:40:07;16.60;;;13.43;;
17714;SDS011;8977;50.902;4.314;2024-01-07T05:42:36;16.57;;;13.53;;
17714;SDS011;8977;50.902;4.314;2024-01-07T05:45:05;16.87;;;13.37;;
17714;SDS011;8977;50.902;4.314;2024-01-07T05:47:33;15.67;;;13.07;;
17714;SDS011;8977;50.902;4.314;2024-01-07T05:50:00;14.93;;;12.17;;
17714;SDS011;8977;50.902;4.314;2024-01-07T05:52:30;16.10;;;13.57;;
17714;SDS011;8977;50.902;4.314;2024-01-07T05:54:57;16.90;;;13.40;;
17714;SDS011;8977;50.902;4.314;2024-01-07T05:57:23;16.20;;;13.33;;
17714;SDS011;8977;50.902;4.314;2024-01-07T05:59:52;17.13;;;14.03;;
17714;SDS011;8977;50.902;4.314;2024-01-07T06:02:19;18.13;;;14.27;;
17714;SDS011;8977;50.902;4.314;2024-01-07T06:04:47;16.63;;;13.90;;
17714;SDS011;8977;50.902;4.314;2024-01-07T06:07:15;17.67;;;13.63;;
17714;SDS011;8977;50.902;4.314;2024-01-07T06:09:46;17.80;;;14.43;;
17714;SDS011;8977;50.902;4.314;2024-01-07T06:12:14;17.13;;;13.90;;
17714;SDS011;8977;50.902;4.314;2024-01-07T06:14:43;19.30;;;15.07;;
17714;SDS011;8977;50.902;4.314;2024-01-07T06:17:11;17.97;;;14.20;;
17714;SDS011;8977;50.902;4.314;2024-01-07T06:19:38;18.70;;;14.90;;
17714;SDS011;8977;50.902;4.314;2024-01-07T06:22:05;19.07;;;15.40;;
17714;SDS011;8977;50.902;4.314;2024-01-07T06:24:32;19.83;;;15.40;;
17714;SDS011;8977;50.902;4.314;2024-01-07T06:29:30;19.50;;;14.87;;
17714;SDS011;8977;50.902;4.314;2024-01-07T06:31:57;18.07;;;14.47;;
17714;SDS011;8977;50.902;4.314;2024-01-07T06:34:24;20.27;;;15.27;;
17714;SDS011;8977;50.902;4.314;2024-01-07T06:36:51;19.07;;;14.23;;
17714;SDS011;8977;50.902;4.314;2024-01-07T06:39:18;19.10;;;14.67;;
17714;SDS011;8977;50.902;4.314;2024-01-07T06:41:45;20.63;;;14.73;;
17714;SDS011;8977;50.902;4.314;2024-01-07T06:44:13;18.07;;;14.40;;
17714;SDS011;8977;50.902;4.314;2024-01-07T06:46:41;19.50;;;15.00;;
17714;SDS011;8977;50.902;4.314;2024-01-07T06:49:08;20.70;;;15.20;;
17714;SDS011;8977;50.902;4.314;2024-01-07T06:51:35;22.27;;;15.87;;
17714;SDS011;8977;50.902;4.314;2024-01-07T06:54:03;20.97;;;15.53;;
17714;SDS011;8977;50.902;4.314;2024-01-07T06:56:30;22.67;;;15.63;;
17714;SDS011;8977;50.902;4.314;2024-01-07T06:58:57;22.30;;;15.80;;
17714;SDS011;8977;50.902;4.314;2024-01-07T07:01:25;25.27;;;17.47;;
17714;SDS011;8977;50.902;4.314;2024-01-07T07:03:52;25.33;;;17.37;;
17714;SDS011;8977;50.902;4.314;2024-01-07T07:06:19;24.83;;;16.97;;
17714;SDS011;8977;50.902;4.314;2024-01-07T07:08:46;24.83;;;17.77;;
17714;SDS011;8977;50.902;4.314;2024-01-07T07:11:12;24.93;;;17.67;;
17714;SDS011;8977;50.902;4.314;2024-01-07T07:13:40;25.83;;;17.20;;
17714;SDS011;8977;50.902;4.314;2024-01-07T07:16:07;25.90;;;17.57;;
17714;SDS011;8977;50.902;4.314;2024-01-07T07:18:38;27.20;;;17.83;;
17714;SDS011;8977;50.902;4.314;2024-01-07T07:21:04;28.53;;;18.77;;
17714;SDS011;8977;50.902;4.314;2024-01-07T07:23:31;27.10;;;17.30;;
17714;SDS011;8977;50.902;4.314;2024-01-07T07:25:58;28.73;;;18.40;;
17714;SDS011;8977;50.902;4.314;2024-01-07T07:28:25;30.90;;;20.43;;
17714;SDS011;8977;50.902;4.314;2024-01-07T07:30:52;30.47;;;19.67;;
17714;SDS011;8977;50.902;4.314;2024-01-07T07:33:25;32.30;;;21.03;;
17714;SDS011;8977;50.902;4.314;2024-01-07T07:35:53;32.87;;;20.37;;
17714;SDS011;8977;50.902;4.314;2024-01-07T07:38:20;34.63;;;21.87;;
17714;SDS011;8977;50.902;4.314;2024-01-07T07:40:49;33.03;;;21.73;;
17714;SDS011;8977;50.902;4.314;2024-01-07T07:43:18;33.27;;;20.77;;
17714;SDS011;8977;50.902;4.314;2024-01-07T07:45:45;33.77;;;21.63;;
17714;SDS011;8977;50.902;4.314;2024-01-07T07:48:12;30.30;;;19.77;;
17714;SDS011;8977;50.902;4.314;2024-01-07T07:50:39;32.00;;;20.90;;
17714;SDS011;8977;50.902;4.314;2024-01-07T07:53:08;30.87;;;20.13;;
17714;SDS011;8977;50.902;4.314;2024-01-07T07:55:35;30.90;;;20.20;;
17714;SDS011;8977;50.902;4.314;2024-01-07T07:58:01;35.20;;;21.20;;
17714;SDS011;8977;50.902;4.314;2024-01-07T08:00:28;30.67;;;20.07;;
17714;SDS011;8977;50.902;4.314;2024-01-07T08:02:55;31.80;;;20.30;;
17714;SDS011;8977;50.902;4.314;2024-01-07T08:05:22;27.67;;;19.80;;
17714;SDS011;8977;50.902;4.314;2024-01-07T08:07:49;28.33;;;18.87;;
17714;SDS011;8977;50.902;4.314;2024-01-07T08:10:17;29.53;;;19.30;;
17714;SDS011;8977;50.902;4.314;2024-01-07T08:12:46;29.77;;;18.70;;
17714;SDS011;8977;50.902;4.314;2024-01-07T08:15:14;25.67;;;17.77;;
17714;SDS011;8977;50.902;4.314;2024-01-07T08:17:41;28.27;;;18.90;;
17714;SDS011;8977;50.902;4.314;2024-01-07T08:20:09;28.27;;;18.53;;
17714;SDS011;8977;50.902;4.314;2024-01-07T08:22:37;27.90;;;18.33;;
17714;SDS011;8977;50.902;4.314;2024-01-07T08:25:04;28.03;;;19.13;;
17714;SDS011;8977;50.902;4.314;2024-01-07T08:27:33;25.97;;;17.43;;
17714;SDS011;8977;50.902;4.314;2024-01-07T08:30:00;28.23;;;18.93;;
17714;SDS011;8977;50.902;4.314;2024-01-07T08:32:27;26.80;;;17.17;;
17714;SDS011;8977;50.902;4.314;2024-01-07T08:34:54;24.10;;;17.47;;
17714;SDS011;8977;50.902;4.314;2024-01-07T08:37:21;23.50;;;16.73;;
17714;SDS011;8977;50.902;4.314;2024-01-07T08:39:49;25.20;;;17.57;;
17714;SDS011;8977;50.902;4.314;2024-01-07T08:42:16;24.60;;;16.97;;
17714;SDS011;8977;50.902;4.314;2024-01-07T08:44:46;24.23;;;16.30;;
17714;SDS011;8977;50.902;4.314;2024-01-07T08:47:13;20.70;;;16.00;;
17714;SDS011;8977;50.902;4.314;2024-01-07T08:49:40;22.03;;;15.90;;
17714;SDS011;8977;50.902;4.314;2024-01-07T08:52:08;23.70;;;15.20;;
17714;SDS011;8977;50.902;4.314;2024-01-07T08:54:35;20.83;;;15.90;;
17714;SDS011;8977;50.902;4.314;2024-01-07T08:57:02;20.50;;;15.03;;
17714;SDS011;8977;50.902;4.314;2024-01-07T08:59:29;19.03;;;15.13;;
17714;SDS011;8977;50.902;4.314;2024-01-07T09:02:06;21.60;;;15.70;;
17714;SDS011;8977;50.902;4.314;2024-01-07T09:04:33;21.03;;;15.07;;
17714;SDS011;8977;50.902;4.314;2024-01-07T09:07:01;19.30;;;14.70;;
17714;SDS011;8977;50.902;4.314;2024-01-07T09:09:29;17.13;;;14.10;;
17714;SDS011;8977;50.902;4.314;2024-01-07T09:11:56;19.37;;;14.20;;
17714;SDS011;8977;50.902;4.314;2024-01-07T09:14:25;19.83;;;14.43;;
17714;SDS011;8977;50.902;4.314;2024-01-07T09:16:52;15.63;;;13.17;;
17714;SDS011;8977;50.902;4.314;2024-01-07T09:19:21;17.00;;;13.70;;
17714;SDS011;8977;50.902;4.314;2024-01-07T09:21:48;18.17;;;14.23;;
17714;SDS011;8977;50.902;4.314;2024-01-07T09:24:14;19.97;;;14.43;;
17714;SDS011;8977;50.902;4.314;2024-01-07T09:26:41;19.03;;;14.10;;
17714;SDS011;8977;50.902;4.314;2024-01-07T09:29:08;18.27;;;13.90;;
17714;SDS011;8977;50.902;4.314;2024-01-07T09:31:37;18.50;;;13.77;;
17714;SDS011;8977;50.902;4.314;2024-01-07T09:34:10;17.67;;;13.80;;
17714;SDS011;8977;50.902;4.314;2024-01-07T09:36:38;18.37;;;13.90;;
17714;SDS011;8977;50.902;4.314;2024-01-07T09:39:05;16.63;;;14.33;;
17714;SDS011;8977;50.902;4.314;2024-01-07T09:41:32;17.67;;;14.07;;
17714;SDS011;8977;50.902;4.314;2024-01-07T09:43:59;16.77;;;14.10;;
17714;SDS011;8977;50.902;4.314;2024-01-07T09:46:29;18.20;;;14.67;;
17714;SDS011;8977;50.902;4.314;2024-01-07T09:48:58;21.43;;;14.40;;
17714;SDS011;8977;50.902;4.314;2024-01-07T09:51:25;19.70;;;15.37;;
17714;SDS011;8977;50.902;4.314;2024-01-07T09:53:58;22.57;;;15.53;;
17714;SDS011;8977;50.902;4.314;2024-01-07T09:56:32;22.50;;;16.67;;
17714;SDS011;8977;50.902;4.314;2024-01-07T09:59:04;19.50;;;15.00;;
17714;SDS011;8977;50.902;4.314;2024-01-07T10:01:33;21.13;;;15.57;;
17714;SDS011;8977;50.902;4.314;2024-01-07T10:04:01;19.80;;;14.97;;
17714;SDS011;8977;50.902;4.314;2024-01-07T10:06:28;20.03;;;15.60;;
17714;SDS011;8977;50.902;4.314;2024-01-07T10:08:55;19.23;;;15.03;;
17714;SDS011;8977;50.902;4.314;2024-01-07T10:11:24;18.90;;;15.13;;
17714;SDS011;8977;50.902;4.314;2024-01-07T10:13:52;22.50;;;16.83;;
17714;SDS011;8977;50.902;4.314;2024-01-07T10:16:20;21.97;;;17.10;;
17714;SDS011;8977;50.902;4.314;2024-01-07T10:18:46;21.37;;;17.57;;
17714;SDS011;8977;50.902;4.314;2024-01-07T10:21:15;24.57;;;17.90;;
17714;SDS011;8977;50.902;4.314;2024-01-07T10:23:42;22.97;;;17.80;;
17714;SDS011;8977;50.902;4.314;2024-01-07T10:26:10;23.90;;;17.80;;
17714;SDS011;8977;50.902;4.314;2024-01-07T10:28:37;23.17;;;17.37;;
17714;SDS011;8977;50.902;4.314;2024-01-07T10:31:05;21.43;;;16.10;;
17714;SDS011;8977;50.902;4.314;2024-01-07T10:33:32;24.87;;;18.33;;
17714;SDS011;8977;50.902;4.314;2024-01-07T10:36:01;21.63;;;16.93;;
17714;SDS011;8977;50.902;4.314;2024-01-07T10:38:31;22.87;;;17.70;;
17714;SDS011;8977;50.902;4.314;2024-01-07T10:40:59;23.63;;;17.17;;
17714;SDS011;8977;50.902;4.314;2024-01-07T10:43:28;21.50;;;17.03;;
17714;SDS011;8977;50.902;4.314;2024-01-07T10:45:56;21.43;;;16.70;;
17714;SDS011;8977;50.902;4.314;2024-01-07T10:48:29;21.10;;;15.97;;
17714;SDS011;8977;50.902;4.314;2024-01-07T10:50:58;18.17;;;14.63;;
17714;SDS011;8977;50.902;4.314;2024-01-07T10:53:27;16.77;;;13.23;;
17714;SDS011;8977;50.902;4.314;2024-01-07T10:55:59;14.80;;;12.70;;
17714;SDS011;8977;50.902;4.314;2024-01-07T10:58:31;18.30;;;14.53;;
17714;SDS011;8977;50.902;4.314;2024-01-07T11:00:59;18.77;;;14.73;;
17714;SDS011;8977;50.902;4.314;2024-01-07T11:03:31;20.73;;;15.87;;
17714;SDS011;8977;50.902;4.314;2024-01-07T11:06:05;16.27;;;13.60;;
17714;SDS011;8977;50.902;4.314;2024-01-07T11:08:36;16.90;;;13.80;;
17714;SDS011;8977;50.902;4.314;2024-01-07T11:11:10;17.40;;;14.00;;
17714;SDS011;8977;50.902;4.314;2024-01-07T11:13:42;16.77;;;14.10;;
17714;SDS011;8977;50.902;4.314;2024-01-07T11:16:11;16.80;;;14.80;;
17714;SDS011;8977;50.902;4.314;2024-01-07T11:18:38;18.37;;;15.03;;
17714;SDS011;8977;50.902;4.314;2024-01-07T11:21:06;16.60;;;14.33;;
17714;SDS011;8977;50.902;4.314;2024-01-07T11:23:34;21.60;;;16.23;;
17714;SDS011;8977;50.902;4.314;2024-01-07T11:26:02;17.60;;;15.17;;
17714;SDS011;8977;50.902;4.314;2024-01-07T11:28:43;18.13;;;14.97;;
17714;SDS011;8977;50.902;4.314;2024-01-07T11:31:11;16.37;;;14.53;;
17714;SDS011;8977;50.902;4.314;2024-01-07T11:33:38;18.47;;;14.50;;
17714;SDS011;8977;50.902;4.314;2024-01-07T11:36:07;18.13;;;14.60;;
17714;SDS011;8977;50.902;4.314;2024-01-07T11:38:36;17.17;;;14.77;;
17714;SDS011;8977;50.902;4.314;2024-01-07T11:41:04;16.37;;;13.40;;
17714;SDS011;8977;50.902;4.314;2024-01-07T11:43:32;16.57;;;14.23;;
17714;SDS011;8977;50.902;4.314;2024-01-07T11:46:01;16.70;;;14.20;;
17714;SDS011;8977;50.902;4.314;2024-01-07T11:48:28;16.57;;;13.97;;
17714;SDS011;8977;50.902;4.314;2024-01-07T11:50:55;16.60;;;14.37;;
17714;SDS011;8977;50.902;4.314;2024-01-07T11:53:22;16.43;;;14.27;;
17714;SDS011;8977;50.902;4.314;2024-01-07T11:55:49;17.47;;;13.80;;
17714;SDS011;8977;50.902;4.314;2024-01-07T11:58:16;16.57;;;13.57;;
17714;SDS011;8977;50.902;4.314;2024-01-07T12:00:43;15.33;;;13.43;;
17714;SDS011;8977;50.902;4.314;2024-01-07T12:03:11;17.80;;;14.07;;
17714;SDS011;8977;50.902;4.314;2024-01-07T12:05:38;14.63;;;12.83;;
17714;SDS011;8977;50.902;4.314;2024-01-07T12:08:05;14.93;;;12.77;;
17714;SDS011;8977;50.902;4.314;2024-01-07T12:10:32;17.03;;;12.40;;
17714;SDS011;8977;50.902;4.314;2024-01-07T12:13:00;14.60;;;12.90;;
17714;SDS011;8977;50.902;4.314;2024-01-07T12:15:28;13.90;;;11.23;;
17714;SDS011;8977;50.902;4.314;2024-01-07T12:17:56;15.03;;;11.90;;
17714;SDS011;8977;50.902;4.314;2024-01-07T12:20:25;14.57;;;11.50;;
17714;SDS011;8977;50.902;4.314;2024-01-07T12:22:54;12.63;;;11.27;;
17714;SDS011;8977;50.902;4.314;2024-01-07T12:25:22;13.20;;;10.87;;
17714;SDS011;8977;50.902;4.314;2024-01-07T12:27:50;13.57;;;10.87;;
17714;SDS011;8977;50.902;4.314;2024-01-07T12:30:23;15.03;;;11.57;;
17714;SDS011;8977;50.902;4.314;2024-01-07T12:32:51;14.50;;;11.87;;
17714;SDS011;8977;50.902;4.314;2024-01-07T12:35:18;14.27;;;11.57;;
17714;SDS011;8977;50.902;4.314;2024-01-07T12:37:47;13.77;;;10.63;;
17714;SDS011;8977;50.902;4.314;2024-01-07T12:40:14;11.60;;;9.60;;
17714;SDS011;8977;50.902;4.314;2024-01-07T12:42:42;13.83;;;10.47;;
17714;SDS011;8977;50.902;4.314;2024-01-07T12:45:11;11.33;;;9.33;;
17714;SDS011;8977;50.902;4.314;2024-01-07T12:47:40;13.53;;;10.13;;
17714;SDS011;8977;50.902;4.314;2024-01-07T12:50:08;13.03;;;10.10;;
17714;SDS011;8977;50.902;4.314;2024-01-07T12:52:36;14.13;;;10.17;;
17714;SDS011;8977;50.902;4.314;2024-01-07T12:55:06;14.60;;;10.47;;
17714;SDS011;8977;50.902;4.314;2024-01-07T12:57:34;11.90;;;9.47;;
17714;SDS011;8977;50.902;4.314;2024-01-07T13:00:03;14.63;;;10.80;;
17714;SDS011;8977;50.902;4.314;2024-01-07T13:02:32;13.40;;;11.20;;
17714;SDS011;8977;50.902;4.314;2024-01-07T13:04:59;14.73;;;11.40;;
17714;SDS011;8977;50.902;4.314;2024-01-07T13:07:28;11.57;;;10.17;;
17714;SDS011;8977;50.902;4.314;2024-01-07T13:09:55;11.67;;;9.90;;
17714;SDS011;8977;50.902;4.314;2024-01-07T13:12:23;11.60;;;9.27;;
17714;SDS011;8977;50.902;4.314;2024-01-07T13:14:51;12.93;;;9.27;;
17714;SDS011;8977;50.902;4.314;2024-01-07T13:17:18;10.77;;;9.13;;
17714;SDS011;8977;50.902;4.314;2024-01-07T13:19:45;13.23;;;9.97;;
17714;SDS011;8977;50.902;4.314;2024-01-07T13:22:12;11.47;;;9.57;;
17714;SDS011;8977;50.902;4.314;2024-01-07T13:24:39;11.87;;;9.33;;
17714;SDS011;8977;50.902;4.314;2024-01-07T13:27:07;10.70;;;9.17;;
17714;SDS011;8977;50.902;4.314;2024-01-07T13:29:35;11.97;;;9.77;;
17714;SDS011;8977;50.902;4.314;2024-01-07T13:32:03;13.17;;;10.17;;
17714;SDS011;8977;50.902;4.314;2024-01-07T13:34:30;16.10;;;10.90;;
17714;SDS011;8977;50.902;4.314;2024-01-07T13:36:57;13.80;;;10.57;;
17714;SDS011;8977;50.902;4.314;2024-01-07T13:39:24;13.87;;;10.43;;
17714;SDS011;8977;50.902;4.314;2024-01-07T13:41:51;14.40;;;10.93;;
17714;SDS011;8977;50.902;4.314;2024-01-07T13:44:19;13.30;;;10.03;;
17714;SDS011;8977;50.902;4.314;2024-01-07T13:46:47;12.70;;;10.00;;
17714;SDS011;8977;50.902;4.314;2024-01-07T13:49:17;12.20;;;10.00;;
17714;SDS011;8977;50.902;4.314;2024-01-07T13:51:44;11.83;;;9.70;;
17714;SDS011;8977;50.902;4.314;2024-01-07T13:54:11;12.00;;;9.13;;
17714;SDS011;8977;50.902;4.314;2024-01-07T13:56:39;12.03;;;10.60;;
17714;SDS011;8977;50.902;4.314;2024-01-07T13:59:07;11.77;;;8.93;;
17714;SDS011;8977;50.902;4.314;2024-01-07T14:01:35;12.27;;;10.60;;
17714;SDS011;8977;50.902;4.314;2024-01-07T14:04:03;12.17;;;10.67;;
17714;SDS011;8977;50.902;4.314;2024-01-07T14:06:30;11.57;;;10.30;;
17714;SDS011;8977;50.902;4.314;2024-01-07T14:08:57;13.63;;;10.20;;
17714;SDS011;8977;50.902;4.314;2024-01-07T14:11:24;12.30;;;10.63;;
17714;SDS011;8977;50.902;4.314;2024-01-07T14:13:53;10.93;;;9.77;;
17714;SDS011;8977;50.902;4.314;2024-01-07T14:16:20;12.70;;;10.07;;
17714;SDS011;8977;50.902;4.314;2024-01-07T14:18:46;11.60;;;9.93;;
17714;SDS011;8977;50.902;4.314;2024-01-07T14:21:15;11.87;;;10.33;;
17714;SDS011;8977;50.902;4.314;2024-01-07T14:23:42;13.10;;;10.53;;
17714;SDS011;8977;50.902;4.314;2024-01-07T14:26:09;11.07;;;9.60;;
17714;SDS011;8977;50.902;4.314;2024-01-07T14:28:36;12.00;;;9.43;;
17714;SDS011;8977;50.902;4.314;2024-01-07T14:31:03;11.80;;;9.73;;
17714;SDS011;8977;50.902;4.314;2024-01-07T14:33:30;11.67;;;9.47;;
17714;SDS011;8977;50.902;4.314;2024-01-07T14:35:57;10.23;;;9.17;;
17714;SDS011;8977;50.902;4.314;2024-01-07T14:38:26;10.70;;;9.57;;
17714;SDS011;8977;50.902;4.314;2024-01-07T14:40:53;12.77;;;10.40;;
17714;SDS011;8977;50.902;4.314;2024-01-07T14:43:21;10.33;;;9.23;;
17714;SDS011;8977;50.902;4.314;2024-01-07T14:45:48;11.33;;;9.53;;
17714;SDS011;8977;50.902;4.314;2024-01-07T14:48:15;12.10;;;10.80;;
17714;SDS011;8977;50.902;4.314;2024-01-07T14:50:42;13.87;;;10.97;;